Wartrace, Tennessee
Current Conditions -  °F | °C
As of 12:15 PM on Friday 28 Nov 2014 (Local Time) from KSYI Reporting Station
Clear Clear  
Wind Chill: 41°   Ceiling: Unl
Heat Index: 45°   Visibility: 10mi
Dew Point: 18°   Wind: 6mph
Humidity: 34%   Direction: 150°SSE
Pressure: 30.33"   Gusts: NA
Location:  35.53°N, 86.33°W
Report Text: KSYI 281815Z AUTO 15005KT 10SM CLR 07/M08 A3033 RMK
Loading
Personal Weather Stations






























Interactive Weather Map New forecast layout! Learn more

10-Day Weather Forecast

Advertisements
Track Severe Weather on mobile